Time;durP1;ratioP1;P1;durP2;ratioP2;P2;SDS_P1;SDS_P2;PMS_P1;PMS_P2;Temp;Humidity;BMP_temperature;BMP_pressure;BME280_temperature;BME280_humidity;BME280_pressure;Samples;Min_cycle;Max_cycle;Signal;HPM_P1;HPM_P2
2022/09/06 08:01:52;;;;;;;4.63;3.20;;;;;;;21.11;71.47;101330.69;5270338;28;20407;-69
2022/09/06 08:04:23;;;;;;;4.53;3.00;;;;;;;21.24;71.26;101331.53;5258352;28;20504;-69
2022/09/06 08:06:56;;;;;;;5.05;3.17;;;;;;;21.40;70.16;101329.72;5257936;28;20041;-68
2022/09/06 08:09:27;;;;;;;4.45;2.40;;;;;;;21.63;68.67;101326.41;5257991;28;20068;-70
2022/09/06 08:11:58;;;;;;;3.40;2.75;;;;;;;21.53;69.60;101333.34;5251273;28;20053;-69
2022/09/06 08:14:29;;;;;;;4.85;2.70;;;;;;;21.47;69.11;101323.47;5238520;28;20053;-69
2022/09/06 08:17:02;;;;;;;4.95;2.65;;;;;;;21.42;68.86;101333.00;5237668;28;20149;-70
2022/09/06 08:19:33;;;;;;;4.63;2.40;;;;;;;21.39;68.69;101335.69;5238049;28;20029;-69
2022/09/06 08:22:05;;;;;;;3.08;2.00;;;;;;;21.57;68.35;101334.28;5238381;28;20021;-69
2022/09/06 08:24:37;;;;;;;3.15;2.10;;;;;;;21.60;68.69;101333.59;5258109;28;20037;-69
2022/09/06 08:27:09;;;;;;;3.85;2.80;;;;;;;21.54;68.86;101340.63;5256147;28;20046;-70
2022/09/06 08:29:41;;;;;;;6.43;3.05;;;;;;;21.54;68.04;101356.75;5252607;28;20033;-69
2022/09/06 08:32:12;;;;;;;2.58;2.38;;;;;;;21.50;68.16;101353.81;5257865;28;20451;-69
2022/09/06 08:34:43;;;;;;;3.53;2.50;;;;;;;21.59;68.61;101359.34;5258540;28;20546;-70
2022/09/06 08:37:15;;;;;;;3.05;2.63;;;;;;;21.70;68.26;101349.22;5257628;28;20075;-71
2022/09/06 08:39:46;;;;;;;3.15;2.33;;;;;;;21.95;67.77;101343.56;5255967;28;20041;-71
2022/09/06 08:42:17;;;;;;;2.83;2.63;;;;;;;21.88;67.58;101344.13;5255986;28;20460;-71
2022/09/06 08:44:54;;;;;;;6.18;2.70;;;;;;;22.03;67.54;101339.75;5253927;28;20522;-71
2022/09/06 08:47:25;;;;;;;2.58;2.38;;;;;;;21.98;67.88;101338.00;5255988;28;20036;-70
2022/09/06 08:50:03;;;;;;;5.80;2.80;;;;;;;22.07;68.02;101335.06;5256376;28;20021;-69
2022/09/06 08:52:40;;;;;;;5.43;2.95;;;;;;;22.08;67.66;101343.16;5255345;28;20119;-70
2022/09/06 08:55:31;;;;;;;4.20;2.75;;;;;;;22.22;67.13;101328.69;5256291;28;20021;-70
2022/09/06 08:58:20;;;;;;;3.50;2.38;;;;;;;22.32;67.16;101324.56;5249935;28;20131;-70
2022/09/06 09:01:03;;;;;;;3.85;2.65;;;;;;;22.36;66.48;101336.75;5254721;28;20045;-69
2022/09/06 09:03:37;;;;;;;3.15;2.53;;;;;;;22.32;66.08;101336.69;5239533;28;20036;-69
2022/09/06 09:06:11;;;;;;;3.28;2.45;;;;;;;22.39;66.34;101335.22;5246979;28;20021;-69
2022/09/06 09:09:03;;;;;;;4.20;2.50;;;;;;;22.39;65.86;101335.22;5255914;28;20036;-69
2022/09/06 09:11:35;;;;;;;3.28;2.90;;;;;;;22.42;66.09;101338.19;5252543;28;20552;-71
2022/09/06 09:14:21;;;;;;;3.08;2.35;;;;;;;22.48;66.30;101333.09;5243086;28;20116;-71
2022/09/06 09:16:59;;;;;;;4.30;2.45;;;;;;;22.50;65.84;101325.91;5243865;28;20030;-71
2022/09/06 09:19:35;;;;;;;6.00;3.08;;;;;;;22.53;65.53;101319.50;5235123;28;20092;-71
2022/09/06 09:22:06;;;;;;;4.43;3.30;;;;;;;22.60;66.02;101318.06;5237854;28;20380;-71
2022/09/06 09:24:41;;;;;;;3.72;2.60;;;;;;;22.58;65.91;101327.72;5243459;28;20022;-71
2022/09/06 09:27:16;;;;;;;3.00;2.70;;;;;;;22.65;66.08;101329.97;5242761;28;20056;-71
2022/09/06 09:29:54;;;;;;;5.47;3.03;;;;;;;22.64;65.92;101319.81;5243509;28;20065;-71
2022/09/06 09:32:39;;;;;;;6.28;3.20;;;;;;;22.65;65.87;101318.66;5235024;28;20033;-71
2022/09/06 09:35:20;;;;;;;3.80;2.95;;;;;;;22.72;65.85;101324.47;5235719;28;20045;-73
2022/09/06 09:38:17;;;;;;;4.05;3.00;;;;;;;22.68;65.44;101332.06;5225621;28;20026;-72
2022/09/06 09:40:54;;;;;;;4.75;2.75;;;;;;;22.81;66.17;101323.50;5241439;28;20480;-73
2022/09/06 09:43:31;;;;;;;4.60;2.75;;;;;;;22.85;65.73;101333.72;5243342;28;20376;-72
2022/09/06 09:46:21;;;;;;;5.20;3.00;;;;;;;22.86;65.18;101326.09;5230050;28;20030;-74
2022/09/06 09:49:21;;;;;;;4.00;3.10;;;;;;;22.96;65.41;101323.53;5242561;28;20021;-74
2022/09/06 09:52:13;;;;;;;4.43;3.70;;;;;;;22.88;65.56;101327.34;5237812;28;20037;-74
2022/09/06 09:54:45;;;;;;;12.82;5.93;;;;;;;22.93;65.78;101318.63;5238664;28;20029;-75
2022/09/06 09:57:18;;;;;;;4.18;2.97;;;;;;;22.91;64.56;101312.50;5243120;28;20033;-71
2022/09/06 09:59:53;;;;;;;3.53;3.20;;;;;;;23.02;65.00;101314.81;5242991;28;20049;-74
2022/09/06 10:02:24;;;;;;;;;;;;;;;23.17;64.55;101319.66;5242978;28;20039;-74
2022/09/06 10:05:28;;;;;;;8.35;3.10;;;;;;;23.14;64.76;101314.75;5241573;28;19923;-73
2022/09/06 10:07:59;;;;;;;7.57;3.42;;;;;;;23.16;64.94;101329.31;5233814;28;20037;-74
2022/09/06 10:10:39;;;;;;;5.43;3.28;;;;;;;23.26;65.71;101339.28;5229700;28;20556;-75
2022/09/06 10:13:20;;;;;;;5.88;3.42;;;;;;;23.40;65.26;101345.31;5222509;28;20030;-75
2022/09/06 10:15:52;;;;;;;6.68;3.40;;;;;;;23.43;64.79;101338.91;5241346;28;20026;-75
2022/09/06 10:18:42;;;;;;;5.97;3.90;;;;;;;23.50;65.12;101332.63;5242830;28;20029;-75
2022/09/06 10:21:17;;;;;;;6.60;4.25;;;;;;;23.40;64.81;101331.97;5242871;28;20079;-74
2022/09/06 10:23:54;;;;;;;;;;;;;;;23.58;64.88;101335.25;5241489;28;20495;-74
2022/09/06 10:26:40;;;;;;;6.43;4.20;;;;;;;23.58;65.07;101335.25;5236272;28;20435;-75
2022/09/06 10:29:13;;;;;;;6.72;3.55;;;;;;;23.66;65.13;101330.59;5241340;28;20391;-74
2022/09/06 10:31:56;;;;;;;5.53;3.95;;;;;;;23.67;64.67;101332.22;5242501;28;20037;-74
2022/09/06 10:35:03;;;;;;;4.10;3.63;;;;;;;23.79;63.93;101329.31;5241745;28;20075;-74
2022/09/06 10:38:03;;;;;;;9.25;3.90;;;;;;;23.88;63.17;101331.97;5220948;28;20029;-74
2022/09/06 10:41:01;;;;;;;4.85;3.70;;;;;;;23.92;62.93;101327.19;5238517;28;20033;-74
2022/09/06 10:43:57;;;;;;;8.13;4.13;;;;;;;23.96;62.79;101328.09;5240561;28;20049;-74
2022/09/06 10:46:32;;;;;;;;;;;;;;;24.03;62.27;101324.59;5222088;28;20028;-74
2022/09/06 10:49:10;;;;;;;4.93;3.88;;;;;;;23.98;62.43;101324.88;5221413;28;19913;-74
2022/09/06 10:51:50;;;;;;;6.28;4.15;;;;;;;23.92;62.44;101326.38;5229340;28;20492;-74
2022/09/06 10:54:23;;;;;;;5.00;4.47;;;;;;;23.99;62.42;101321.69;5241703;28;20048;-74
2022/09/06 10:57:11;;;;;;;5.75;5.13;;;;;;;23.96;61.84;101313.94;5242044;28;20017;-72
2022/09/06 10:59:50;;;;;;;4.57;3.20;;;;;;;24.19;61.83;101318.88;5240963;28;20033;-69
2022/09/06 11:02:50;;;;;;;6.03;3.58;;;;;;;24.14;60.87;101330.50;5221810;28;20038;-71
2022/09/06 11:05:29;;;;;;;6.90;4.10;;;;;;;24.15;61.72;101321.63;5226363;28;20117;-69
2022/09/06 11:08:14;;;;;;;5.40;3.60;;;;;;;24.36;61.54;101326.13;5241117;28;20033;-71
2022/09/06 11:10:48;;;;;;;4.68;3.88;;;;;;;24.37;60.98;101330.59;5241794;28;20653;-72
2022/09/06 11:13:26;;;;;;;6.72;4.63;;;;;;;24.45;60.84;101332.41;5240581;28;20025;-71
2022/09/06 11:16:19;;;;;;;4.35;3.75;;;;;;;24.54;60.70;101347.19;5241620;28;20026;-71
2022/09/06 11:19:01;;;;;;;4.22;3.55;;;;;;;24.63;59.55;101342.09;5233079;28;20413;-71
2022/09/06 11:22:00;;;;;;;3.63;3.30;;;;;;;24.68;59.00;101335.31;5240879;28;20030;-69
2022/09/06 11:24:57;;;;;;;9.98;3.50;;;;;;;24.84;58.79;101349.41;5241030;28;20502;-71
2022/09/06 11:27:28;;;;;;;6.50;3.15;;;;;;;24.85;58.29;101348.19;5240591;28;20073;-70
2022/09/06 11:30:01;;;;;;;6.97;3.87;;;;;;;24.79;58.35;101346.88;5241564;28;20111;-72
2022/09/06 11:32:47;;;;;;;5.15;3.65;;;;;;;24.95;58.64;101350.41;5240569;28;20292;-72
2022/09/06 11:35:29;;;;;;;3.75;3.00;;;;;;;25.15;58.78;101349.19;5226638;28;20028;-71
2022/09/06 11:38:02;;;;;;;6.95;3.70;;;;;;;25.38;58.70;101343.53;5240962;28;20543;-71
2022/09/06 11:40:43;;;;;;;4.45;3.25;;;;;;;25.45;57.40;101344.88;5240087;28;20029;-71
2022/09/06 11:43:45;;;;;;;5.60;3.75;;;;;;;25.36;55.83;101343.13;5241497;28;20026;-71
2022/09/06 11:46:34;;;;;;;5.85;3.45;;;;;;;25.40;55.51;101333.84;5240886;28;20039;-71
2022/09/06 11:49:15;;;;;;;4.25;3.38;;;;;;;25.42;53.38;101335.09;5241396;28;20071;-70
2022/09/06 11:51:46;;;;;;;6.63;3.05;;;;;;;25.50;53.85;101336.03;5239396;28;20030;-70
2022/09/06 11:54:21;;;;;;;5.88;3.08;;;;;;;25.67;54.39;101331.81;5219754;28;20033;-72
2022/09/06 11:56:56;;;;;;;6.72;4.05;;;;;;;25.51;53.43;101338.47;5234160;28;20482;-71
2022/09/06 11:59:34;;;;;;;4.28;3.65;;;;;;;25.46;53.81;101329.47;5240856;28;20067;-72
2022/09/06 12:02:29;;;;;;;6.70;3.88;;;;;;;25.67;55.36;101328.97;5240122;28;20045;-72
2022/09/06 12:05:06;;;;;;;4.53;3.20;;;;;;;25.73;53.13;101336.00;5240332;28;20435;-73
2022/09/06 12:08:15;;;;;;;5.57;3.72;;;;;;;25.84;53.65;101324.78;5233420;28;20493;-71
2022/09/06 12:10:55;;;;;;;5.50;3.47;;;;;;;25.98;52.81;101317.34;5220650;28;20030;-71
2022/09/06 12:13:34;;;;;;;5.05;3.90;;;;;;;25.94;53.28;101310.75;5220509;28;20038;-71
2022/09/06 12:16:09;;;;;;;5.35;3.60;;;;;;;26.31;53.02;101312.91;5219779;28;20109;-72
2022/09/06 12:18:46;;;;;;;8.00;4.28;;;;;;;26.12;52.42;101310.19;5220570;28;20377;-72
2022/09/06 12:21:46;;;;;;;8.45;4.85;;;;;;;26.16;52.65;101305.41;5219981;28;20449;-71
2022/09/06 12:24:32;;;;;;;4.20;3.63;;;;;;;26.31;52.23;101304.38;5222048;28;20516;-72
2022/09/06 12:27:15;;;;;;;11.48;4.15;;;;;;;26.30;52.73;101302.72;5236223;28;20025;-72
2022/09/06 12:30:10;;;;;;;6.85;3.30;;;;;;;26.51;51.18;101309.88;5239967;28;20036;-71
2022/09/06 12:32:45;;;;;;;4.00;3.42;;;;;;;26.51;50.29;101307.03;5240212;28;20022;-72
2022/09/06 12:35:25;;;;;;;6.93;3.78;;;;;;;26.56;49.07;101307.56;5240900;28;20045;-71
2022/09/06 12:38:00;;;;;;;4.55;3.10;;;;;;;26.60;48.89;101310.44;5240099;28;20500;-73
2022/09/06 12:40:36;;;;;;;4.78;3.53;;;;;;;26.62;48.35;101302.34;5240342;28;20044;-71
2022/09/06 12:43:11;;;;;;;3.85;2.88;;;;;;;26.93;48.39;101303.06;5234774;28;20452;-72
2022/09/06 12:45:52;;;;;;;4.05;3.55;;;;;;;26.72;48.12;101290.25;5219959;28;20029;-72
2022/09/06 12:48:26;;;;;;;4.65;3.47;;;;;;;26.86;48.00;101287.53;5223935;28;20034;-72
2022/09/06 12:51:06;;;;;;;5.43;2.67;;;;;;;26.96;48.11;101285.22;5224334;28;20064;-69
2022/09/06 12:53:37;;;;;;;8.38;5.13;;;;;;;26.87;47.69;101277.81;5244654;28;20040;-73
2022/09/06 12:56:11;;;;;;;5.22;3.00;;;;;;;27.06;48.85;101279.59;5244466;28;20025;-73
2022/09/06 12:58:42;;;;;;;3.40;3.10;;;;;;;27.15;48.40;101262.22;5223891;28;20092;-73
2022/09/06 13:01:23;;;;;;;3.97;3.00;;;;;;;27.26;47.34;101271.69;5234274;28;20041;-73
2022/09/06 13:04:01;;;;;;;9.80;8.75;;;;;;;27.46;47.53;101277.94;5243890;28;20025;-74
2022/09/06 13:06:38;;;;;;;3.75;3.00;;;;;;;27.48;46.74;101277.53;5244119;28;20052;-73
2022/09/06 13:09:15;;;;;;;5.55;4.03;;;;;;;27.20;46.77;101269.59;5224634;28;20536;-73
2022/09/06 13:11:51;;;;;;;4.53;3.80;;;;;;;27.08;47.52;101271.50;5230241;28;20060;-73
2022/09/06 13:14:26;;;;;;;6.20;3.35;;;;;;;27.34;47.46;101271.75;5244080;28;20548;-73
2022/09/06 13:16:58;;;;;;;7.45;3.92;;;;;;;27.43;47.02;101280.75;5236464;28;20038;-75
2022/09/06 13:19:41;;;;;;;8.10;3.10;;;;;;;27.59;46.83;101266.25;5243127;28;20096;-73
2022/09/06 13:22:43;;;;;;;4.20;3.10;;;;;;;27.79;46.29;101269.59;5243299;28;20045;-73
2022/09/06 13:25:22;;;;;;;4.65;3.28;;;;;;;27.77;45.37;101260.66;5243164;28;20063;-72
2022/09/06 13:27:57;;;;;;;4.18;3.65;;;;;;;27.86;45.35;101263.97;5243769;28;20018;-73
2022/09/06 13:30:40;;;;;;;4.95;3.60;;;;;;;28.04;44.75;101256.31;5242564;28;20025;-71
2022/09/06 13:33:39;;;;;;;4.78;3.67;;;;;;;27.99;44.82;101251.00;5241967;28;20037;-72
2022/09/06 13:36:10;;;;;;;4.13;3.20;;;;;;;28.08;44.65;101245.78;5242922;28;20076;-71
2022/09/06 13:38:43;;;;;;;9.02;8.23;;;;;;;27.97;43.63;101236.38;5242752;28;20069;-70
2022/09/06 13:41:24;;;;;;;6.85;3.35;;;;;;;28.18;43.84;101233.59;5242025;28;20030;-71
2022/09/06 13:44:00;;;;;;;7.90;6.10;;;;;;;28.21;44.04;101234.81;5243567;28;20032;-70
2022/09/06 13:46:32;;;;;;;6.32;4.07;;;;;;;28.16;43.90;101226.66;5241664;28;20423;-73
2022/09/06 13:49:04;;;;;;;18.38;16.77;;;;;;;28.06;44.11;101227.44;5243064;28;20113;-74
2022/09/06 13:51:37;;;;;;;4.40;4.00;;;;;;;28.27;43.82;101209.59;5239629;28;20076;-75
2022/09/06 13:54:11;;;;;;;6.30;4.07;;;;;;;28.18;42.79;101219.34;5242417;28;20480;-74
2022/09/06 13:56:47;;;;;;;5.57;3.57;;;;;;;28.30;43.28;101215.31;5242300;28;20076;-71
2022/09/06 13:59:18;;;;;;;7.43;3.78;;;;;;;28.27;42.83;101203.88;5242415;28;20040;-73
2022/09/06 14:02:04;;;;;;;5.50;3.80;;;;;;;28.43;43.18;101215.75;5240093;28;20045;-70
2022/09/06 14:04:35;;;;;;;4.57;3.97;;;;;;;28.27;42.75;101212.44;5235931;28;20076;-71
2022/09/06 14:07:10;;;;;;;3.97;3.10;;;;;;;28.31;42.39;101213.28;5241550;28;20022;-71
2022/09/06 14:09:41;;;;;;;;;;;;;;;28.71;42.16;101211.31;5226029;28;20105;-72
2022/09/06 14:12:13;;;;;;;6.83;3.30;;;;;;;28.66;41.88;101221.13;5226620;28;20000;-71
2022/09/06 14:14:44;;;;;;;7.03;3.65;;;;;;;28.54;42.31;101230.06;5242134;28;20292;-70
2022/09/06 14:17:16;;;;;;;6.53;2.97;;;;;;;28.67;42.33;101236.19;5241872;28;20021;-71
2022/09/06 14:19:48;;;;;;;13.23;11.85;;;;;;;28.73;41.64;101237.41;5242637;28;20099;-71
2022/09/06 14:22:19;;;;;;;4.07;3.40;;;;;;;28.60;41.53;101231.28;5241503;28;20038;-70
2022/09/06 14:24:50;;;;;;;8.75;4.03;;;;;;;28.45;41.86;101232.47;5235901;28;20032;-71
2022/09/06 14:27:22;;;;;;;4.65;3.58;;;;;;;28.33;41.82;101223.06;5242560;28;20024;-72
2022/09/06 14:29:53;;;;;;;5.15;4.00;;;;;;;28.52;42.11;101221.91;5240988;28;20039;-72
2022/09/06 14:32:25;;;;;;;4.78;3.10;;;;;;;28.33;41.34;101225.09;5242002;28;20034;-72
2022/09/06 14:34:56;;;;;;;6.15;3.42;;;;;;;28.65;41.54;101210.09;5242159;28;20595;-72
2022/09/06 14:37:30;;;;;;;5.25;3.45;;;;;;;28.42;41.71;101216.94;5241748;28;20029;-71
2022/09/06 14:40:03;;;;;;;5.15;3.20;;;;;;;28.38;42.23;101221.84;5242462;28;20026;-71
2022/09/06 14:42:34;;;;;;;6.25;3.13;;;;;;;28.39;43.07;101212.88;5234338;28;20074;-70
2022/09/06 14:45:06;;;;;;;7.25;4.03;;;;;;;28.37;42.47;101208.78;5242009;28;20498;-70
2022/09/06 14:47:37;;;;;;;7.72;3.55;;;;;;;28.35;42.41;101206.38;5242117;28;20033;-67
2022/09/06 14:50:09;;;;;;;14.00;10.82;;;;;;;28.48;41.86;101200.28;5241101;28;20028;-69
2022/09/06 14:52:40;;;;;;;4.35;3.42;;;;;;;28.39;42.12;101210.03;5242206;28;20033;-69
2022/09/06 14:55:12;;;;;;;27.98;25.08;;;;;;;28.54;41.91;101201.53;5241695;28;20079;-68
2022/09/06 14:57:43;;;;;;;8.57;5.90;;;;;;;28.53;42.68;101199.88;5241068;28;20025;-69
2022/09/06 15:00:18;;;;;;;8.35;4.50;;;;;;;28.41;41.00;101201.06;5227470;28;20505;-69
2022/09/06 15:02:49;;;;;;;4.35;3.40;;;;;;;28.24;41.57;101198.97;5234404;28;20036;-70
2022/09/06 15:05:20;;;;;;;6.60;4.90;;;;;;;28.35;41.43;101196.97;5240669;28;20388;-70
2022/09/06 15:07:52;;;;;;;4.45;3.20;;;;;;;28.33;41.63;101180.28;5241148;28;20040;-72
2022/09/06 15:10:25;;;;;;;4.05;2.92;;;;;;;28.19;41.28;101175.34;5240911;28;20033;-71
2022/09/06 15:12:56;;;;;;;5.90;3.10;;;;;;;28.15;41.46;101180.22;5240834;28;20033;-69
2022/09/06 15:15:27;;;;;;;4.88;3.17;;;;;;;28.18;41.90;101173.72;5240628;28;20029;-69
2022/09/06 15:18:05;;;;;;;4.45;2.72;;;;;;;28.12;41.53;101175.34;5239324;28;20076;-70
2022/09/06 15:20:36;;;;;;;4.80;2.88;;;;;;;28.12;41.41;101175.34;5241457;28;20041;-70
2022/09/06 15:23:07;;;;;;;4.15;2.90;;;;;;;27.96;42.07;101175.66;5241197;28;20586;-74
2022/09/06 15:25:49;;;;;;;4.88;3.47;;;;;;;28.17;41.42;101174.94;5241117;28;20026;-74
2022/09/06 15:28:20;;;;;;;5.15;2.97;;;;;;;28.00;41.39;101167.16;5241674;28;20131;-71
2022/09/06 15:30:52;;;;;;;6.80;3.75;;;;;;;27.98;41.40;101168.78;5241531;28;20112;-73
2022/09/06 15:33:23;;;;;;;3.78;3.13;;;;;;;27.88;41.95;101156.91;5233914;28;20030;-73
2022/09/06 15:35:55;;;;;;;8.02;2.80;;;;;;;27.90;42.79;101167.94;5221114;28;20068;-73
2022/09/06 15:38:26;;;;;;;6.22;3.63;;;;;;;27.92;42.31;101172.00;5237428;28;20487;-74
2022/09/06 15:41:19;;;;;;;16.77;15.38;;;;;;;27.88;42.39;101165.47;5240385;28;20034;-71
2022/09/06 15:43:57;;;;;;;5.93;3.17;;;;;;;27.86;41.91;101167.09;5240878;28;20052;-72
2022/09/06 15:46:42;;;;;;;5.38;3.00;;;;;;;27.93;41.82;101172.81;5239222;28;20057;-71
2022/09/06 15:49:23;;;;;;;9.32;3.03;;;;;;;27.98;42.05;101166.72;5237226;28;20121;-71
2022/09/06 15:51:56;;;;;;;3.85;3.03;;;;;;;27.73;41.98;101164.56;5239322;28;20013;-71
2022/09/06 15:57:18;;;;;;;6.97;6.28;;;;;;;27.66;42.31;101156.00;5236429;28;20049;-71
2022/09/06 15:59:52;;;;;;;4.22;3.25;;;;;;;27.63;43.83;101153.94;5233409;28;20021;-68
2022/09/06 16:02:23;;;;;;;4.78;3.40;;;;;;;27.56;44.21;101147.38;5239468;28;20037;-68
2022/09/06 16:04:55;;;;;;;3.65;3.03;;;;;;;27.53;44.59;101154.69;5239881;28;20457;-68
2022/09/06 16:07:27;;;;;;;5.63;3.22;;;;;;;27.49;44.85;101153.88;5237381;28;20506;-78
2022/09/06 16:09:59;;;;;;;4.97;3.40;;;;;;;27.36;44.09;101144.84;5236429;28;20484;-75
2022/09/06 16:12:31;;;;;;;4.75;3.28;;;;;;;27.39;44.41;101146.91;5241223;28;20532;-77
2022/09/06 16:15:02;;;;;;;4.15;2.70;;;;;;;27.37;44.77;101146.47;5240510;28;20117;-76
2022/09/06 16:17:34;;;;;;;4.90;3.33;;;;;;;27.39;43.58;101143.25;5256294;28;20132;-76
2022/09/06 16:20:06;;;;;;;5.55;3.00;;;;;;;27.32;44.50;101139.13;5240836;28;20029;-76
2022/09/06 16:22:37;;;;;;;5.65;3.63;;;;;;;27.27;44.67;101136.66;5242521;28;20041;-77
2022/09/06 16:25:08;;;;;;;6.93;3.45;;;;;;;27.23;44.43;101144.38;5233517;28;20461;-77
2022/09/06 16:27:40;;;;;;;4.65;3.38;;;;;;;27.22;44.35;101144.75;5245067;28;20036;-76
2022/09/06 16:30:14;;;;;;;7.47;3.65;;;;;;;27.25;44.16;101141.94;5242745;28;20036;-76
2022/09/06 16:32:45;;;;;;;3.37;2.53;;;;;;;27.23;44.59;101141.53;5245210;28;20120;-76
2022/09/06 16:35:16;;;;;;;6.50;3.13;;;;;;;27.15;44.88;101138.97;5245103;28;20370;-76
2022/09/06 16:37:48;;;;;;;5.75;3.25;;;;;;;27.18;44.72;101135.38;5245764;28;20036;-75
2022/09/06 16:40:19;;;;;;;6.80;3.72;;;;;;;27.19;45.12;101128.47;5244369;28;20365;-76
2022/09/06 16:42:53;;;;;;;5.57;2.97;;;;;;;27.11;44.65;101121.88;5233451;28;20025;-76
2022/09/06 16:45:24;;;;;;;7.47;3.40;;;;;;;27.10;45.02;101121.06;5225015;28;20025;-76
2022/09/06 16:47:55;;;;;;;5.60;2.95;;;;;;;27.04;46.00;101121.84;5225768;28;20029;-78
2022/09/06 16:50:27;;;;;;;4.00;3.20;;;;;;;27.04;45.93;101124.69;5223611;28;20037;-77
2022/09/06 16:52:59;;;;;;;9.68;3.75;;;;;;;26.96;46.32;101125.84;5238687;28;20033;-76
2022/09/06 16:55:30;;;;;;;6.25;3.85;;;;;;;26.92;46.88;101127.84;5245109;28;20029;-77
2022/09/06 16:58:01;;;;;;;8.65;4.72;;;;;;;26.86;47.20;101125.34;5244062;28;20504;-78
2022/09/06 17:00:33;;;;;;;6.43;3.70;;;;;;;26.81;47.79;101134.25;5253673;28;20507;-78
2022/09/06 17:03:05;;;;;;;4.95;2.78;;;;;;;26.68;48.28;101130.09;5251158;28;20353;-78
2022/09/06 17:05:36;;;;;;;6.57;2.97;;;;;;;26.60;47.74;101128.41;5265652;28;20029;-78
2022/09/06 17:08:08;;;;;;;4.40;3.30;;;;;;;26.53;48.24;101132.00;5230280;28;20033;-79
2022/09/06 17:10:41;;;;;;;7.88;3.20;;;;;;;26.41;48.52;101124.56;5243978;28;20029;-79
2022/09/06 17:13:13;;;;;;;9.52;4.47;;;;;;;26.40;48.98;101131.44;5244147;28;20025;-78
2022/09/06 17:18:47;;;;;;;4.80;3.03;;;;;;;26.31;48.95;101133.81;5226142;28;20117;-78
2022/09/06 17:21:22;;;;;;;5.88;2.70;;;;;;;26.32;48.79;101126.91;5226143;28;20102;-78
2022/09/06 17:24:03;;;;;;;3.88;2.80;;;;;;;26.35;48.53;101126.09;5229426;28;20052;-79
2022/09/06 17:26:37;;;;;;;4.88;2.90;;;;;;;26.30;48.62;101120.78;5243787;28;20056;-78
2022/09/06 17:29:09;;;;;;;3.67;2.83;;;;;;;26.23;49.12;101112.19;5233543;28;20429;-78
2022/09/06 17:31:40;;;;;;;3.85;2.80;;;;;;;26.15;49.12;101121.84;5228355;28;20060;-79
